sensor_id;sensor_type;location;lat;lon;timestamp;pressure;altitude;pressure_sealevel;temperature;humidity
9839;BME280;4958;48.150;11.506;2023-04-02T00:01:22;94821.13;;;9.88;67.52
9839;BME280;4958;48.150;11.506;2023-04-02T00:04:21;94827.00;;;9.75;67.92
9839;BME280;4958;48.150;11.506;2023-04-02T00:06:50;94822.41;;;9.70;68.11
9839;BME280;4958;48.150;11.506;2023-04-02T00:09:39;94825.41;;;9.74;68.04
9839;BME280;4958;48.150;11.506;2023-04-02T00:12:17;94827.78;;;9.76;68.29
9839;BME280;4958;48.150;11.506;2023-04-02T00:14:51;94823.44;;;9.76;68.13
9839;BME280;4958;48.150;11.506;2023-04-02T00:17:20;94822.09;;;9.80;67.99
9839;BME280;4958;48.150;11.506;2023-04-02T00:19:54;94823.28;;;9.84;67.82
9839;BME280;4958;48.150;11.506;2023-04-02T00:22:26;94823.03;;;9.73;68.08
9839;BME280;4958;48.150;11.506;2023-04-02T00:24:54;94823.63;;;9.75;68.03
9839;BME280;4958;48.150;11.506;2023-04-02T00:27:21;94829.16;;;9.72;68.13
9839;BME280;4958;48.150;11.506;2023-04-02T00:29:50;94825.41;;;9.74;68.24
9839;BME280;4958;48.150;11.506;2023-04-02T00:32:35;94834.28;;;9.72;68.09
9839;BME280;4958;48.150;11.506;2023-04-02T00:35:09;94834.28;;;9.72;68.02
9839;BME280;4958;48.150;11.506;2023-04-02T00:37:40;94840.59;;;9.69;68.26
9839;BME280;4958;48.150;11.506;2023-04-02T00:40:15;94838.06;;;9.76;68.21
9839;BME280;4958;48.150;11.506;2023-04-02T00:42:44;94837.72;;;9.85;67.49
9839;BME280;4958;48.150;11.506;2023-04-02T00:45:18;94845.63;;;9.84;67.49
9839;BME280;4958;48.150;11.506;2023-04-02T00:47:47;94838.44;;;9.73;67.68
9839;BME280;4958;48.150;11.506;2023-04-02T00:50:22;94847.38;;;9.77;67.85
9839;BME280;4958;48.150;11.506;2023-04-02T00:52:52;94846.34;;;9.71;68.02
9839;BME280;4958;48.150;11.506;2023-04-02T00:55:21;94843.97;;;9.69;67.83
9839;BME280;4958;48.150;11.506;2023-04-02T00:57:50;94843.97;;;9.69;67.81
9839;BME280;4958;48.150;11.506;2023-04-02T01:00:23;94847.69;;;9.67;68.04
9839;BME280;4958;48.150;11.506;2023-04-02T01:03:13;94849.44;;;9.60;68.43
9839;BME280;4958;48.150;11.506;2023-04-02T01:05:58;94850.63;;;9.64;68.13
9839;BME280;4958;48.150;11.506;2023-04-02T01:08:34;94846.53;;;9.69;68.11
9839;BME280;4958;48.150;11.506;2023-04-02T01:11:14;94847.31;;;9.70;68.02
9839;BME280;4958;48.150;11.506;2023-04-02T01:13:47;94848.91;;;9.71;67.77
9839;BME280;4958;48.150;11.506;2023-04-02T01:16:25;94850.09;;;9.68;68.31
9839;BME280;4958;48.150;11.506;2023-04-02T01:19:02;94851.25;;;9.66;67.96
9839;BME280;4958;48.150;11.506;2023-04-02T01:21:47;94849.66;;;9.65;68.08
9839;BME280;4958;48.150;11.506;2023-04-02T01:24:22;94843.16;;;9.69;68.11
9839;BME280;4958;48.150;11.506;2023-04-02T01:27:03;94842.78;;;9.72;68.08
9839;BME280;4958;48.150;11.506;2023-04-02T01:29:36;94845.56;;;9.70;68.12
9839;BME280;4958;48.150;11.506;2023-04-02T01:32:06;94846.47;;;9.63;68.39
9839;BME280;4958;48.150;11.506;2023-04-02T01:34:34;94853.41;;;9.62;68.61
9839;BME280;4958;48.150;11.506;2023-04-02T01:37:12;94845.56;;;9.70;68.38
9839;BME280;4958;48.150;11.506;2023-04-02T01:40:08;94854.66;;;9.73;68.26
9839;BME280;4958;48.150;11.506;2023-04-02T01:42:46;94859.19;;;9.71;67.97
9839;BME280;4958;48.150;11.506;2023-04-02T01:45:17;94864.34;;;9.71;68.38
9839;BME280;4958;48.150;11.506;2023-04-02T01:47:46;94866.31;;;9.69;67.99
9839;BME280;4958;48.150;11.506;2023-04-02T01:50:20;94862.50;;;9.65;68.54
9839;BME280;4958;48.150;11.506;2023-04-02T01:52:49;94875.97;;;9.67;68.28
9839;BME280;4958;48.150;11.506;2023-04-02T01:55:20;94873.97;;;9.62;68.72
9839;BME280;4958;48.150;11.506;2023-04-02T01:57:51;94869.22;;;9.59;68.57
9839;BME280;4958;48.150;11.506;2023-04-02T02:00:20;94871.97;;;9.58;68.65
9839;BME280;4958;48.150;11.506;2023-04-02T02:02:50;94874.56;;;9.64;68.71
9839;BME280;4958;48.150;11.506;2023-04-02T02:05:19;94874.19;;;9.61;68.67
9839;BME280;4958;48.150;11.506;2023-04-02T02:07:47;94877.56;;;9.68;68.60
9839;BME280;4958;48.150;11.506;2023-04-02T02:10:16;94875.22;;;9.73;68.56
9839;BME280;4958;48.150;11.506;2023-04-02T02:12:44;94882.94;;;9.73;68.55
9839;BME280;4958;48.150;11.506;2023-04-02T02:15:14;94884.72;;;9.73;68.55
9839;BME280;4958;48.150;11.506;2023-04-02T02:17:43;94888.69;;;9.75;68.48
9839;BME280;4958;48.150;11.506;2023-04-02T02:20:10;94890.28;;;9.76;68.51
9839;BME280;4958;48.150;11.506;2023-04-02T02:22:39;94891.69;;;9.79;68.39
9839;BME280;4958;48.150;11.506;2023-04-02T02:25:11;94898.22;;;9.81;68.28
9839;BME280;4958;48.150;11.506;2023-04-02T02:27:56;94899.00;;;9.82;68.04
9839;BME280;4958;48.150;11.506;2023-04-02T02:30:28;94898.00;;;9.83;67.94
9839;BME280;4958;48.150;11.506;2023-04-02T02:33:01;94899.59;;;9.77;67.82
9839;BME280;4958;48.150;11.506;2023-04-02T02:35:32;94900.13;;;9.73;68.46
9839;BME280;4958;48.150;11.506;2023-04-02T02:38:21;94908.16;;;9.63;69.20
9839;BME280;4958;48.150;11.506;2023-04-02T02:40:53;94899.06;;;9.60;68.81
9839;BME280;4958;48.150;11.506;2023-04-02T02:43:22;94908.41;;;9.68;68.35
9839;BME280;4958;48.150;11.506;2023-04-02T02:45:54;94908.97;;;9.63;68.90
9839;BME280;4958;48.150;11.506;2023-04-02T02:48:34;94910.53;;;9.58;68.83
9839;BME280;4958;48.150;11.506;2023-04-02T02:51:05;94904.72;;;9.49;69.17
9839;BME280;4958;48.150;11.506;2023-04-02T02:53:44;94921.16;;;9.55;69.02
9839;BME280;4958;48.150;11.506;2023-04-02T02:56:11;94918.00;;;9.53;69.03
9839;BME280;4958;48.150;11.506;2023-04-02T02:58:38;94919.56;;;9.54;68.82
9839;BME280;4958;48.150;11.506;2023-04-02T03:01:08;94920.63;;;9.59;68.79
9839;BME280;4958;48.150;11.506;2023-04-02T03:03:37;94919.03;;;9.58;68.67
9839;BME280;4958;48.150;11.506;2023-04-02T03:06:08;94924.78;;;9.60;68.52
9839;BME280;4958;48.150;11.506;2023-04-02T03:08:38;94913.09;;;9.58;68.76
9839;BME280;4958;48.150;11.506;2023-04-02T03:11:10;94922.56;;;9.57;68.37
9839;BME280;4958;48.150;11.506;2023-04-02T03:13:42;94926.94;;;9.63;68.41
9839;BME280;4958;48.150;11.506;2023-04-02T03:16:15;94928.94;;;9.61;68.59
9839;BME280;4958;48.150;11.506;2023-04-02T03:18:48;94923.59;;;9.63;68.15
9839;BME280;4958;48.150;11.506;2023-04-02T03:21:23;94926.56;;;9.60;68.36
9839;BME280;4958;48.150;11.506;2023-04-02T03:23:54;94935.53;;;9.49;68.84
9839;BME280;4958;48.150;11.506;2023-04-02T03:26:26;94927.47;;;9.52;68.87
9839;BME280;4958;48.150;11.506;2023-04-02T03:28:58;94935.19;;;9.52;68.87
9839;BME280;4958;48.150;11.506;2023-04-02T03:31:31;94928.25;;;9.53;68.71
9839;BME280;4958;48.150;11.506;2023-04-02T03:34:03;94939.72;;;9.50;69.14
9839;BME280;4958;48.150;11.506;2023-04-02T03:36:33;94942.81;;;9.46;69.16
9839;BME280;4958;48.150;11.506;2023-04-02T03:39:11;94941.41;;;9.43;69.25
9839;BME280;4958;48.150;11.506;2023-04-02T03:41:43;94951.03;;;9.56;68.80
9839;BME280;4958;48.150;11.506;2023-04-02T03:44:19;94947.31;;;9.65;68.23
9839;BME280;4958;48.150;11.506;2023-04-02T03:46:52;94948.69;;;9.61;68.58
9839;BME280;4958;48.150;11.506;2023-04-02T03:49:28;94953.84;;;9.61;68.34
9839;BME280;4958;48.150;11.506;2023-04-02T03:52:02;94958.38;;;9.59;68.70
9839;BME280;4958;48.150;11.506;2023-04-02T03:54:31;94953.22;;;9.59;68.51
9839;BME280;4958;48.150;11.506;2023-04-02T03:56:58;94961.13;;;9.57;68.31
9839;BME280;4958;48.150;11.506;2023-04-02T03:59:32;94962.91;;;9.57;68.85
9839;BME280;4958;48.150;11.506;2023-04-02T04:02:10;94960.97;;;9.65;68.43
9839;BME280;4958;48.150;11.506;2023-04-02T04:04:42;94966.72;;;9.67;67.99
9839;BME280;4958;48.150;11.506;2023-04-02T04:07:14;94967.88;;;9.65;68.14
9839;BME280;4958;48.150;11.506;2023-04-02T04:09:44;94968.50;;;9.67;67.70
9839;BME280;4958;48.150;11.506;2023-04-02T04:12:22;94971.84;;;9.61;68.40
9839;BME280;4958;48.150;11.506;2023-04-02T04:14:52;94975.19;;;9.61;67.92
9839;BME280;4958;48.150;11.506;2023-04-02T04:17:24;94977.38;;;9.64;68.59
9839;BME280;4958;48.150;11.506;2023-04-02T04:19:58;94980.56;;;9.66;68.27
9839;BME280;4958;48.150;11.506;2023-04-02T04:22:28;94979.09;;;9.57;68.11
9839;BME280;4958;48.150;11.506;2023-04-02T04:24:57;94984.38;;;9.49;68.43
9839;BME280;4958;48.150;11.506;2023-04-02T04:27:27;94991.88;;;9.51;68.30
9839;BME280;4958;48.150;11.506;2023-04-02T04:30:02;94983.94;;;9.46;68.50
9839;BME280;4958;48.150;11.506;2023-04-02T04:32:32;94991.63;;;9.46;68.70
9839;BME280;4958;48.150;11.506;2023-04-02T04:35:05;94991.03;;;9.44;68.69
9839;BME280;4958;48.150;11.506;2023-04-02T04:37:36;94996.16;;;9.44;68.55
9839;BME280;4958;48.150;11.506;2023-04-02T04:40:10;95005.09;;;9.48;68.67
9839;BME280;4958;48.150;11.506;2023-04-02T04:42:40;95006.88;;;9.47;68.78
9839;BME280;4958;48.150;11.506;2023-04-02T04:45:15;95010.56;;;9.38;68.82
9839;BME280;4958;48.150;11.506;2023-04-02T04:47:49;95008.22;;;9.43;68.77
9839;BME280;4958;48.150;11.506;2023-04-02T04:50:24;95018.25;;;9.38;68.78
9839;BME280;4958;48.150;11.506;2023-04-02T04:52:56;95024.44;;;9.44;68.68
9839;BME280;4958;48.150;11.506;2023-04-02T04:55:36;95024.63;;;9.42;68.83
9839;BME280;4958;48.150;11.506;2023-04-02T04:58:07;95022.25;;;9.41;68.80
9839;BME280;4958;48.150;11.506;2023-04-02T05:00:42;95024.44;;;9.44;68.78
9839;BME280;4958;48.150;11.506;2023-04-02T05:03:15;95029.34;;;9.39;68.66
9839;BME280;4958;48.150;11.506;2023-04-02T05:05:48;95036.06;;;9.40;68.59
9839;BME280;4958;48.150;11.506;2023-04-02T05:08:18;95041.63;;;9.43;68.93
9839;BME280;4958;48.150;11.506;2023-04-02T05:10:57;95037.41;;;9.35;68.99
9839;BME280;4958;48.150;11.506;2023-04-02T05:13:31;95046.09;;;9.34;69.01
9839;BME280;4958;48.150;11.506;2023-04-02T05:16:06;95042.41;;;9.44;69.20
9839;BME280;4958;48.150;11.506;2023-04-02T05:18:42;95055.16;;;9.52;68.71
9839;BME280;4958;48.150;11.506;2023-04-02T05:21:21;95061.81;;;9.46;69.00
9839;BME280;4958;48.150;11.506;2023-04-02T05:23:57;95064.56;;;9.45;68.82
9839;BME280;4958;48.150;11.506;2023-04-02T05:26:30;95059.69;;;9.50;68.57
9839;BME280;4958;48.150;11.506;2023-04-02T05:29:01;95064.81;;;9.50;68.52
9839;BME280;4958;48.150;11.506;2023-04-02T05:31:37;95062.69;;;9.53;68.56
9839;BME280;4958;48.150;11.506;2023-04-02T05:34:12;95062.88;;;9.52;68.67
9839;BME280;4958;48.150;11.506;2023-04-02T05:36:51;95074.47;;;9.48;68.78
9839;BME280;4958;48.150;11.506;2023-04-02T05:39:21;95073.06;;;9.45;68.90
9839;BME280;4958;48.150;11.506;2023-04-02T05:42:00;95081.75;;;9.44;68.71
9839;BME280;4958;48.150;11.506;2023-04-02T05:44:33;95084.63;;;9.34;69.07
9839;BME280;4958;48.150;11.506;2023-04-02T05:47:11;95087.47;;;9.40;69.07
9839;BME280;4958;48.150;11.506;2023-04-02T05:49:41;95076.63;;;9.44;68.98
9839;BME280;4958;48.150;11.506;2023-04-02T05:52:14;95084.13;;;9.46;68.85
9839;BME280;4958;48.150;11.506;2023-04-02T05:54:48;95084.94;;;9.46;69.11
9839;BME280;4958;48.150;11.506;2023-04-02T05:57:20;95086.47;;;9.41;69.16
9839;BME280;4958;48.150;11.506;2023-04-02T05:59:51;95101.63;;;9.35;69.06
9839;BME280;4958;48.150;11.506;2023-04-02T06:02:22;95093.38;;;9.40;69.15
9839;BME280;4958;48.150;11.506;2023-04-02T06:04:54;95096.13;;;9.39;69.33
9839;BME280;4958;48.150;11.506;2023-04-02T06:07:27;95097.56;;;9.41;69.03
9839;BME280;4958;48.150;11.506;2023-04-02T06:10:07;95100.31;;;9.40;69.03
9839;BME280;4958;48.150;11.506;2023-04-02T06:12:42;95109.16;;;9.37;69.75
9839;BME280;4958;48.150;11.506;2023-04-02T06:17:44;95108.53;;;9.35;69.20
9839;BME280;4958;48.150;11.506;2023-04-02T06:20:19;95110.56;;;9.40;69.03
9839;BME280;4958;48.150;11.506;2023-04-02T06:22:51;95111.72;;;9.37;69.35
9839;BME280;4958;48.150;11.506;2023-04-02T06:25:23;95116.69;;;9.39;69.31
9839;BME280;4958;48.150;11.506;2023-04-02T06:27:53;95122.00;;;9.37;69.33
9839;BME280;4958;48.150;11.506;2023-04-02T06:30:27;95117.22;;;9.34;69.81
9839;BME280;4958;48.150;11.506;2023-04-02T06:32:56;95121.28;;;9.28;69.73
9839;BME280;4958;48.150;11.506;2023-04-02T06:35:22;95116.59;;;9.32;69.71
9839;BME280;4958;48.150;11.506;2023-04-02T06:37:52;95123.06;;;9.28;70.07
9839;BME280;4958;48.150;11.506;2023-04-02T06:40:36;95129.97;;;9.27;70.27
9839;BME280;4958;48.150;11.506;2023-04-02T06:43:13;95131.69;;;9.20;70.33
9839;BME280;4958;48.150;11.506;2023-04-02T06:45:45;95132.03;;;9.32;70.20
9839;BME280;4958;48.150;11.506;2023-04-02T06:48:16;95140.44;;;9.41;69.65
9839;BME280;4958;48.150;11.506;2023-04-02T06:50:47;95139.50;;;9.48;69.72
9839;BME280;4958;48.150;11.506;2023-04-02T06:53:20;95147.31;;;9.55;69.35
9839;BME280;4958;48.150;11.506;2023-04-02T06:55:49;95149.25;;;9.53;69.77
9839;BME280;4958;48.150;11.506;2023-04-02T06:58:18;95157.22;;;9.58;69.34
9839;BME280;4958;48.150;11.506;2023-04-02T07:00:46;95152.31;;;9.63;69.04
9839;BME280;4958;48.150;11.506;2023-04-02T07:03:15;95157.22;;;9.58;69.58
9839;BME280;4958;48.150;11.506;2023-04-02T07:05:42;95161.63;;;9.64;69.41
9839;BME280;4958;48.150;11.506;2023-04-02T07:08:08;95168.38;;;9.65;69.51
9839;BME280;4958;48.150;11.506;2023-04-02T07:10:39;95172.25;;;9.76;69.22
9839;BME280;4958;48.150;11.506;2023-04-02T07:13:05;95164.38;;;9.77;68.83
9839;BME280;4958;48.150;11.506;2023-04-02T07:15:32;95168.53;;;9.78;68.92
9839;BME280;4958;48.150;11.506;2023-04-02T07:17:59;95172.53;;;9.81;69.27
9839;BME280;4958;48.150;11.506;2023-04-02T07:20:27;95176.28;;;9.85;69.03
9839;BME280;4958;48.150;11.506;2023-04-02T07:22:54;95180.63;;;9.84;69.23
9839;BME280;4958;48.150;11.506;2023-04-02T07:25:21;95183.34;;;9.76;68.93
9839;BME280;4958;48.150;11.506;2023-04-02T07:27:49;95172.88;;;9.78;69.39
9839;BME280;4958;48.150;11.506;2023-04-02T07:30:16;95191.09;;;9.83;69.24
9839;BME280;4958;48.150;11.506;2023-04-02T07:32:45;95182.84;;;9.87;69.40
9839;BME280;4958;48.150;11.506;2023-04-02T07:35:11;95191.72;;;9.85;69.07
9839;BME280;4958;48.150;11.506;2023-04-02T07:37:38;95189.16;;;9.85;69.55
9839;BME280;4958;48.150;11.506;2023-04-02T07:40:07;95190.16;;;10.05;69.28
9839;BME280;4958;48.150;11.506;2023-04-02T07:42:40;95189.25;;;10.13;69.18
9839;BME280;4958;48.150;11.506;2023-04-02T07:45:09;95188.91;;;10.16;68.51
9839;BME280;4958;48.150;11.506;2023-04-02T07:47:39;95196.69;;;10.22;68.61
9839;BME280;4958;48.150;11.506;2023-04-02T07:50:06;95204.03;;;10.25;68.82
9839;BME280;4958;48.150;11.506;2023-04-02T07:52:33;95198.97;;;10.32;68.70
9839;BME280;4958;48.150;11.506;2023-04-02T07:55:04;95208.47;;;10.31;68.45
9839;BME280;4958;48.150;11.506;2023-04-02T07:57:37;95208.81;;;10.28;68.27
9839;BME280;4958;48.150;11.506;2023-04-02T08:00:09;95210.97;;;10.25;68.50
9839;BME280;4958;48.150;11.506;2023-04-02T08:02:36;95221.78;;;10.20;68.65
9839;BME280;4958;48.150;11.506;2023-04-02T08:05:03;95223.09;;;10.31;68.82
9839;BME280;4958;48.150;11.506;2023-04-02T08:07:29;95227.13;;;10.40;68.79
9839;BME280;4958;48.150;11.506;2023-04-02T08:09:56;95225.06;;;10.50;68.11
9839;BME280;4958;48.150;11.506;2023-04-02T08:12:22;95224.09;;;10.51;67.84
9839;BME280;4958;48.150;11.506;2023-04-02T08:14:49;95228.44;;;10.51;67.41
9839;BME280;4958;48.150;11.506;2023-04-02T08:17:16;95232.84;;;10.57;67.45
9839;BME280;4958;48.150;11.506;2023-04-02T08:19:43;95229.53;;;10.63;67.54
9839;BME280;4958;48.150;11.506;2023-04-02T08:22:09;95231.66;;;10.59;68.51
9839;BME280;4958;48.150;11.506;2023-04-02T08:24:36;95237.22;;;10.56;67.71
9839;BME280;4958;48.150;11.506;2023-04-02T08:27:02;95238.59;;;10.59;68.04
9839;BME280;4958;48.150;11.506;2023-04-02T08:29:29;95246.19;;;10.67;67.48
9839;BME280;4958;48.150;11.506;2023-04-02T08:31:57;95246.56;;;10.64;67.56
9839;BME280;4958;48.150;11.506;2023-04-02T08:34:25;95237.84;;;10.65;67.84
9839;BME280;4958;48.150;11.506;2023-04-02T08:36:55;95244.78;;;10.64;67.33
9839;BME280;4958;48.150;11.506;2023-04-02T08:39:23;95246.56;;;10.64;67.57
9839;BME280;4958;48.150;11.506;2023-04-02T08:41:57;95249.56;;;10.67;67.54
9839;BME280;4958;48.150;11.506;2023-04-02T08:44:40;95250.63;;;10.73;66.95
9839;BME280;4958;48.150;11.506;2023-04-02T08:47:11;95249.75;;;10.66;68.16
9839;BME280;4958;48.150;11.506;2023-04-02T08:49:43;95255.44;;;10.83;68.17
9839;BME280;4958;48.150;11.506;2023-04-02T08:52:21;95250.72;;;10.86;66.67
9839;BME280;4958;48.150;11.506;2023-04-02T08:54:48;95245.84;;;10.98;66.52
9839;BME280;4958;48.150;11.506;2023-04-02T08:57:22;95261.41;;;11.11;66.85
9839;BME280;4958;48.150;11.506;2023-04-02T08:59:57;95264.44;;;11.21;66.35
9839;BME280;4958;48.150;11.506;2023-04-02T09:02:29;95255.72;;;11.22;65.99
9839;BME280;4958;48.150;11.506;2023-04-02T09:04:59;95260.78;;;11.37;65.69
9839;BME280;4958;48.150;11.506;2023-04-02T09:07:27;95268.41;;;11.52;65.84
9839;BME280;4958;48.150;11.506;2023-04-02T09:09:54;95270.63;;;11.61;64.66
9839;BME280;4958;48.150;11.506;2023-04-02T09:12:24;95268.25;;;11.60;64.73
9839;BME280;4958;48.150;11.506;2023-04-02T09:14:59;95262.53;;;11.64;63.96
9839;BME280;4958;48.150;11.506;2023-04-02T09:17:31;95271.34;;;11.76;64.18
9839;BME280;4958;48.150;11.506;2023-04-02T09:20:02;95278.00;;;11.99;63.89
9839;BME280;4958;48.150;11.506;2023-04-02T09:22:39;95274.84;;;12.03;62.93
9839;BME280;4958;48.150;11.506;2023-04-02T09:25:12;95273.50;;;12.21;62.26
9839;BME280;4958;48.150;11.506;2023-04-02T09:27:39;95285.25;;;12.23;62.02
9839;BME280;4958;48.150;11.506;2023-04-02T09:30:13;95280.50;;;12.33;61.44
9839;BME280;4958;48.150;11.506;2023-04-02T09:32:48;95282.50;;;12.31;61.81
9839;BME280;4958;48.150;11.506;2023-04-02T09:35:19;95285.50;;;12.41;61.31
9839;BME280;4958;48.150;11.506;2023-04-02T09:37:46;95291.47;;;12.55;60.53
9839;BME280;4958;48.150;11.506;2023-04-02T09:40:24;95306.41;;;12.66;60.33
9839;BME280;4958;48.150;11.506;2023-04-02T09:43:09;95298.06;;;12.77;60.16
9839;BME280;4958;48.150;11.506;2023-04-02T09:45:40;95295.50;;;12.91;59.50
9839;BME280;4958;48.150;11.506;2023-04-02T09:48:22;95296.31;;;12.85;58.98
9839;BME280;4958;48.150;11.506;2023-04-02T09:51:03;95302.44;;;12.77;59.34
9839;BME280;4958;48.150;11.506;2023-04-02T09:53:34;95292.47;;;12.61;60.00
9839;BME280;4958;48.150;11.506;2023-04-02T09:56:11;95302.59;;;12.56;59.70
9839;BME280;4958;48.150;11.506;2023-04-02T09:58:38;95298.44;;;12.48;60.65
9839;BME280;4958;48.150;11.506;2023-04-02T10:01:27;95305.91;;;12.36;61.57
9839;BME280;4958;48.150;11.506;2023-04-02T10:03:55;95299.75;;;12.37;61.06
9839;BME280;4958;48.150;11.506;2023-04-02T10:06:25;95313.44;;;12.25;61.06
9839;BME280;4958;48.150;11.506;2023-04-02T10:08:52;95315.97;;;12.12;62.05
9839;BME280;4958;48.150;11.506;2023-04-02T10:11:23;95310.81;;;12.18;61.66
9839;BME280;4958;48.150;11.506;2023-04-02T10:13:55;95311.19;;;12.15;62.17
9839;BME280;4958;48.150;11.506;2023-04-02T10:16:25;95309.84;;;12.19;61.30
9839;BME280;4958;48.150;11.506;2023-04-02T10:18:58;95318.38;;;12.20;62.19
9839;BME280;4958;48.150;11.506;2023-04-02T10:21:31;95314.19;;;12.12;62.40
9839;BME280;4958;48.150;11.506;2023-04-02T10:23:59;95311.81;;;12.10;62.62
9839;BME280;4958;48.150;11.506;2023-04-02T10:26:39;95317.81;;;12.24;61.05
9839;BME280;4958;48.150;11.506;2023-04-02T10:29:15;95315.84;;;12.33;60.77
9839;BME280;4958;48.150;11.506;2023-04-02T10:31:52;95308.88;;;12.33;60.15
9839;BME280;4958;48.150;11.506;2023-04-02T10:34:31;95313.38;;;12.79;60.17
9839;BME280;4958;48.150;11.506;2023-04-02T10:37:09;95317.59;;;13.39;57.90
9839;BME280;4958;48.150;11.506;2023-04-02T10:39:39;95307.63;;;13.56;55.54
9839;BME280;4958;48.150;11.506;2023-04-02T10:42:13;95297.50;;;13.61;55.71
9839;BME280;4958;48.150;11.506;2023-04-02T10:44:49;95309.81;;;13.59;56.00
9839;BME280;4958;48.150;11.506;2023-04-02T10:47:28;95314.19;;;13.52;56.23
9839;BME280;4958;48.150;11.506;2023-04-02T10:50:06;95306.84;;;13.49;56.90
9839;BME280;4958;48.150;11.506;2023-04-02T10:52:45;95308.25;;;13.45;57.10
9839;BME280;4958;48.150;11.506;2023-04-02T10:55:16;95318.81;;;13.43;56.69
9839;BME280;4958;48.150;11.506;2023-04-02T10:57:46;95329.94;;;13.37;57.20
9839;BME280;4958;48.150;11.506;2023-04-02T11:00:17;95332.13;;;13.21;57.07
9839;BME280;4958;48.150;11.506;2023-04-02T11:02:47;95333.28;;;13.11;57.10
9839;BME280;4958;48.150;11.506;2023-04-02T11:05:19;95337.03;;;12.96;56.96
9839;BME280;4958;48.150;11.506;2023-04-02T11:07:57;95328.69;;;12.94;57.96
9839;BME280;4958;48.150;11.506;2023-04-02T11:10:25;95335.47;;;12.88;58.19
9839;BME280;4958;48.150;11.506;2023-04-02T11:12:58;95339.44;;;12.84;58.43
9839;BME280;4958;48.150;11.506;2023-04-02T11:15:33;95340.00;;;12.79;58.31
9839;BME280;4958;48.150;11.506;2023-04-02T11:18:06;95341.00;;;12.78;58.56
9839;BME280;4958;48.150;11.506;2023-04-02T11:21:03;95337.59;;;12.71;59.22
9839;BME280;4958;48.150;11.506;2023-04-02T11:23:38;95342.53;;;12.60;59.94
9839;BME280;4958;48.150;11.506;2023-04-02T11:26:33;95348.69;;;12.59;60.51
9839;BME280;4958;48.150;11.506;2023-04-02T11:29:14;95346.13;;;12.72;59.76
9839;BME280;4958;48.150;11.506;2023-04-02T11:31:43;95348.75;;;12.78;60.17
9839;BME280;4958;48.150;11.506;2023-04-02T11:37:07;95358.13;;;12.86;59.68
9839;BME280;4958;48.150;11.506;2023-04-02T11:39:49;95356.88;;;12.75;61.23
9839;BME280;4958;48.150;11.506;2023-04-02T11:42:37;95360.66;;;12.73;63.48
9839;BME280;4958;48.150;11.506;2023-04-02T11:48:25;95363.09;;;12.94;64.54
9839;BME280;4958;48.150;11.506;2023-04-02T11:50:52;95366.91;;;13.05;64.71
9839;BME280;4958;48.150;11.506;2023-04-02T11:53:20;95364.34;;;13.31;63.48
9839;BME280;4958;48.150;11.506;2023-04-02T11:56:05;95362.75;;;13.76;61.11
9839;BME280;4958;48.150;11.506;2023-04-02T11:58:47;95359.50;;;14.01;59.83
9839;BME280;4958;48.150;11.506;2023-04-02T12:01:38;95345.59;;;13.95;57.58
9839;BME280;4958;48.150;11.506;2023-04-02T12:07:17;95359.31;;;13.89;57.66
9839;BME280;4958;48.150;11.506;2023-04-02T12:09:52;95356.34;;;13.99;56.45
9839;BME280;4958;48.150;11.506;2023-04-02T12:12:26;95362.69;;;13.96;56.38
9839;BME280;4958;48.150;11.506;2023-04-02T12:14:55;95355.13;;;13.88;56.37
9839;BME280;4958;48.150;11.506;2023-04-02T12:17:30;95364.31;;;13.84;55.64
9839;BME280;4958;48.150;11.506;2023-04-02T12:20:00;95373.09;;;13.83;55.18
9839;BME280;4958;48.150;11.506;2023-04-02T12:22:30;95372.25;;;13.89;55.53
9839;BME280;4958;48.150;11.506;2023-04-02T12:25:02;95370.28;;;13.91;55.53
9839;BME280;4958;48.150;11.506;2023-04-02T12:27:30;95375.06;;;13.68;56.07
9839;BME280;4958;48.150;11.506;2023-04-02T12:30:13;95374.50;;;13.66;56.16
9839;BME280;4958;48.150;11.506;2023-04-02T12:32:42;95378.69;;;13.60;56.74
9839;BME280;4958;48.150;11.506;2023-04-02T12:35:26;95386.41;;;13.47;57.01
9839;BME280;4958;48.150;11.506;2023-04-02T12:37:56;95383.47;;;13.43;57.99
9839;BME280;4958;48.150;11.506;2023-04-02T12:40:24;95386.22;;;13.48;57.92
9839;BME280;4958;48.150;11.506;2023-04-02T12:42:52;95381.06;;;13.42;57.31
9839;BME280;4958;48.150;11.506;2023-04-02T12:45:27;95384.44;;;13.42;57.72
9839;BME280;4958;48.150;11.506;2023-04-02T12:47:59;95393.00;;;13.43;60.20
9839;BME280;4958;48.150;11.506;2023-04-02T12:50:28;95394.97;;;13.34;61.43
9839;BME280;4958;48.150;11.506;2023-04-02T12:52:54;95398.94;;;13.30;62.32
9839;BME280;4958;48.150;11.506;2023-04-02T12:55:25;95408.28;;;13.18;66.63
9839;BME280;4958;48.150;11.506;2023-04-02T12:57:58;95416.38;;;13.02;70.96
9839;BME280;4958;48.150;11.506;2023-04-02T13:00:30;95411.78;;;12.84;74.64
9839;BME280;4958;48.150;11.506;2023-04-02T13:03:00;95412.38;;;12.86;74.06
9839;BME280;4958;48.150;11.506;2023-04-02T13:05:32;95418.16;;;12.95;73.81
9839;BME280;4958;48.150;11.506;2023-04-02T13:08:00;95414.78;;;13.01;75.66
9839;BME280;4958;48.150;11.506;2023-04-02T13:10:27;95414.19;;;12.99;78.02
9839;BME280;4958;48.150;11.506;2023-04-02T13:12:58;95410.41;;;12.88;76.92
9839;BME280;4958;48.150;11.506;2023-04-02T13:15:28;95419.75;;;12.89;76.21
9839;BME280;4958;48.150;11.506;2023-04-02T13:18:05;95413.75;;;12.82;77.19
9839;BME280;4958;48.150;11.506;2023-04-02T13:20:36;95413.16;;;12.80;77.64
9839;BME280;4958;48.150;11.506;2023-04-02T13:26:30;95412.31;;;12.73;80.01
9839;BME280;4958;48.150;11.506;2023-04-02T13:29:09;95418.47;;;12.72;78.25
9839;BME280;4958;48.150;11.506;2023-04-02T13:31:44;95429.00;;;12.64;80.22
9839;BME280;4958;48.150;11.506;2023-04-02T13:34:10;95432.75;;;12.61;80.83
9839;BME280;4958;48.150;11.506;2023-04-02T13:36:51;95415.03;;;12.58;83.44
9839;BME280;4958;48.150;11.506;2023-04-02T13:39:20;95420.25;;;12.65;82.07
9839;BME280;4958;48.150;11.506;2023-04-02T13:41:51;95421.84;;;12.66;81.96
9839;BME280;4958;48.150;11.506;2023-04-02T13:44:21;95424.38;;;12.59;80.70
9839;BME280;4958;48.150;11.506;2023-04-02T13:46:52;95428.34;;;12.55;81.17
9839;BME280;4958;48.150;11.506;2023-04-02T13:49:24;95427.16;;;12.58;81.38
9839;BME280;4958;48.150;11.506;2023-04-02T13:51:53;95433.34;;;12.63;82.01
9839;BME280;4958;48.150;11.506;2023-04-02T13:54:24;95428.16;;;12.57;81.88
9839;BME280;4958;48.150;11.506;2023-04-02T13:56:55;95429.94;;;12.50;81.74
9839;BME280;4958;48.150;11.506;2023-04-02T13:59:24;95429.66;;;12.38;81.18
9839;BME280;4958;48.150;11.506;2023-04-02T14:01:53;95436.78;;;12.36;81.82